sensor_id;sensor_type;location;lat;lon;timestamp;P1;durP1;ratioP1;P2;durP2;ratioP2
12163;SDS011;6145;50.192;10.064;2023-01-05T00:00:51;1.37;;;1.27;;
12163;SDS011;6145;50.192;10.064;2023-01-05T00:03:18;1.70;;;1.53;;
12163;SDS011;6145;50.192;10.064;2023-01-05T00:05:45;1.67;;;1.57;;
12163;SDS011;6145;50.192;10.064;2023-01-05T00:08:13;1.10;;;1.10;;
12163;SDS011;6145;50.192;10.064;2023-01-05T00:10:40;1.10;;;1.10;;
12163;SDS011;6145;50.192;10.064;2023-01-05T00:13:24;1.33;;;1.20;;
12163;SDS011;6145;50.192;10.064;2023-01-05T00:16:10;1.83;;;1.20;;
12163;SDS011;6145;50.192;10.064;2023-01-05T00:18:55;1.77;;;1.20;;
12163;SDS011;6145;50.192;10.064;2023-01-05T00:21:40;1.40;;;1.30;;
12163;SDS011;6145;50.192;10.064;2023-01-05T00:24:26;1.10;;;1.10;;
12163;SDS011;6145;50.192;10.064;2023-01-05T00:26:54;1.43;;;1.10;;
12163;SDS011;6145;50.192;10.064;2023-01-05T00:29:21;1.13;;;1.07;;
12163;SDS011;6145;50.192;10.064;2023-01-05T00:31:47;1.67;;;1.10;;
12163;SDS011;6145;50.192;10.064;2023-01-05T00:34:14;1.63;;;1.30;;
12163;SDS011;6145;50.192;10.064;2023-01-05T00:36:41;1.00;;;1.00;;
12163;SDS011;6145;50.192;10.064;2023-01-05T00:39:08;1.47;;;1.37;;
12163;SDS011;6145;50.192;10.064;2023-01-05T00:41:36;1.10;;;1.10;;
12163;SDS011;6145;50.192;10.064;2023-01-05T00:44:04;1.00;;;1.00;;
12163;SDS011;6145;50.192;10.064;2023-01-05T00:46:31;1.43;;;1.33;;
12163;SDS011;6145;50.192;10.064;2023-01-05T00:49:01;0.93;;;0.93;;
12163;SDS011;6145;50.192;10.064;2023-01-05T00:51:28;1.80;;;0.90;;
12163;SDS011;6145;50.192;10.064;2023-01-05T00:53:54;0.80;;;0.80;;
12163;SDS011;6145;50.192;10.064;2023-01-05T00:56:21;1.17;;;1.03;;
12163;SDS011;6145;50.192;10.064;2023-01-05T00:58:52;0.90;;;0.90;;
12163;SDS011;6145;50.192;10.064;2023-01-05T01:01:19;1.20;;;0.97;;
12163;SDS011;6145;50.192;10.064;2023-01-05T01:03:46;1.00;;;0.93;;
12163;SDS011;6145;50.192;10.064;2023-01-05T01:06:13;0.97;;;0.97;;
12163;SDS011;6145;50.192;10.064;2023-01-05T01:08:40;0.53;;;0.53;;
12163;SDS011;6145;50.192;10.064;2023-01-05T01:11:08;0.77;;;0.77;;
12163;SDS011;6145;50.192;10.064;2023-01-05T01:13:35;0.77;;;0.77;;
12163;SDS011;6145;50.192;10.064;2023-01-05T01:16:07;1.17;;;1.00;;
12163;SDS011;6145;50.192;10.064;2023-01-05T01:18:35;0.77;;;0.77;;
12163;SDS011;6145;50.192;10.064;2023-01-05T01:21:02;1.50;;;0.80;;
12163;SDS011;6145;50.192;10.064;2023-01-05T01:23:32;0.57;;;0.57;;
12163;SDS011;6145;50.192;10.064;2023-01-05T01:26:02;0.50;;;0.50;;
12163;SDS011;6145;50.192;10.064;2023-01-05T01:28:29;2.40;;;0.73;;
12163;SDS011;6145;50.192;10.064;2023-01-05T01:30:56;0.40;;;0.40;;
12163;SDS011;6145;50.192;10.064;2023-01-05T01:33:30;0.70;;;0.50;;
12163;SDS011;6145;50.192;10.064;2023-01-05T01:35:58;0.70;;;0.70;;
12163;SDS011;6145;50.192;10.064;2023-01-05T01:38:29;0.53;;;0.53;;
12163;SDS011;6145;50.192;10.064;2023-01-05T01:40:58;0.40;;;0.40;;
12163;SDS011;6145;50.192;10.064;2023-01-05T01:43:39;0.57;;;0.50;;
12163;SDS011;6145;50.192;10.064;2023-01-05T01:46:07;0.40;;;0.40;;
12163;SDS011;6145;50.192;10.064;2023-01-05T01:48:36;0.60;;;0.60;;
12163;SDS011;6145;50.192;10.064;2023-01-05T01:51:05;0.60;;;0.60;;
12163;SDS011;6145;50.192;10.064;2023-01-05T01:53:37;0.50;;;0.50;;
12163;SDS011;6145;50.192;10.064;2023-01-05T01:56:08;1.70;;;0.50;;
12163;SDS011;6145;50.192;10.064;2023-01-05T01:58:38;0.60;;;0.60;;
12163;SDS011;6145;50.192;10.064;2023-01-05T02:01:05;0.90;;;0.57;;
12163;SDS011;6145;50.192;10.064;2023-01-05T02:03:32;0.47;;;0.47;;
12163;SDS011;6145;50.192;10.064;2023-01-05T02:06:00;0.50;;;0.50;;
12163;SDS011;6145;50.192;10.064;2023-01-05T02:08:26;0.50;;;0.50;;
12163;SDS011;6145;50.192;10.064;2023-01-05T02:13:50;0.40;;;0.40;;
12163;SDS011;6145;50.192;10.064;2023-01-05T02:16:29;0.40;;;0.40;;
12163;SDS011;6145;50.192;10.064;2023-01-05T02:19:08;1.07;;;0.50;;
12163;SDS011;6145;50.192;10.064;2023-01-05T02:22:00;0.40;;;0.40;;
12163;SDS011;6145;50.192;10.064;2023-01-05T02:27:38;0.60;;;0.60;;
12163;SDS011;6145;50.192;10.064;2023-01-05T02:30:16;0.53;;;0.53;;
12163;SDS011;6145;50.192;10.064;2023-01-05T02:33:26;0.70;;;0.70;;
12163;SDS011;6145;50.192;10.064;2023-01-05T02:36:02;1.50;;;0.63;;
12163;SDS011;6145;50.192;10.064;2023-01-05T02:38:34;0.47;;;0.47;;
12163;SDS011;6145;50.192;10.064;2023-01-05T02:41:06;0.70;;;0.70;;
12163;SDS011;6145;50.192;10.064;2023-01-05T02:43:36;0.40;;;0.40;;
12163;SDS011;6145;50.192;10.064;2023-01-05T02:46:03;0.50;;;0.50;;
12163;SDS011;6145;50.192;10.064;2023-01-05T02:48:32;0.60;;;0.60;;
12163;SDS011;6145;50.192;10.064;2023-01-05T02:51:00;1.03;;;0.50;;
12163;SDS011;6145;50.192;10.064;2023-01-05T02:53:31;0.60;;;0.60;;
12163;SDS011;6145;50.192;10.064;2023-01-05T02:56:01;0.67;;;0.57;;
12163;SDS011;6145;50.192;10.064;2023-01-05T02:58:33;1.03;;;0.70;;
12163;SDS011;6145;50.192;10.064;2023-01-05T03:01:04;1.03;;;0.57;;
12163;SDS011;6145;50.192;10.064;2023-01-05T03:03:36;1.97;;;1.07;;
12163;SDS011;6145;50.192;10.064;2023-01-05T03:06:09;2.33;;;0.90;;
12163;SDS011;6145;50.192;10.064;2023-01-05T03:08:40;1.50;;;0.80;;
12163;SDS011;6145;50.192;10.064;2023-01-05T03:11:13;2.10;;;0.83;;
12163;SDS011;6145;50.192;10.064;2023-01-05T03:13:59;0.87;;;0.87;;
12163;SDS011;6145;50.192;10.064;2023-01-05T03:16:33;1.67;;;0.80;;
12163;SDS011;6145;50.192;10.064;2023-01-05T03:19:05;2.57;;;1.20;;
12163;SDS011;6145;50.192;10.064;2023-01-05T03:21:59;1.33;;;1.03;;
12163;SDS011;6145;50.192;10.064;2023-01-05T03:24:45;3.53;;;1.43;;
12163;SDS011;6145;50.192;10.064;2023-01-05T03:27:31;7.33;;;1.50;;
12163;SDS011;6145;50.192;10.064;2023-01-05T03:30:16;7.30;;;1.93;;
12163;SDS011;6145;50.192;10.064;2023-01-05T03:33:03;2.47;;;1.27;;
12163;SDS011;6145;50.192;10.064;2023-01-05T03:35:54;3.87;;;1.33;;
12163;SDS011;6145;50.192;10.064;2023-01-05T03:38:25;6.47;;;1.63;;
12163;SDS011;6145;50.192;10.064;2023-01-05T03:40:56;5.77;;;1.40;;
12163;SDS011;6145;50.192;10.064;2023-01-05T03:43:25;3.43;;;1.23;;
12163;SDS011;6145;50.192;10.064;2023-01-05T03:45:53;5.93;;;1.93;;
12163;SDS011;6145;50.192;10.064;2023-01-05T03:48:21;7.17;;;1.57;;
12163;SDS011;6145;50.192;10.064;2023-01-05T03:50:49;5.30;;;1.60;;
12163;SDS011;6145;50.192;10.064;2023-01-05T03:53:17;4.07;;;2.03;;
12163;SDS011;6145;50.192;10.064;2023-01-05T03:55:44;3.80;;;1.40;;
12163;SDS011;6145;50.192;10.064;2023-01-05T03:58:11;3.10;;;1.30;;
12163;SDS011;6145;50.192;10.064;2023-01-05T04:00:38;7.10;;;1.80;;
12163;SDS011;6145;50.192;10.064;2023-01-05T04:03:04;2.70;;;1.37;;
12163;SDS011;6145;50.192;10.064;2023-01-05T04:05:33;4.90;;;1.87;;
12163;SDS011;6145;50.192;10.064;2023-01-05T04:07:59;5.90;;;1.40;;
12163;SDS011;6145;50.192;10.064;2023-01-05T04:10:27;4.00;;;1.47;;
12163;SDS011;6145;50.192;10.064;2023-01-05T04:12:54;4.03;;;1.47;;
12163;SDS011;6145;50.192;10.064;2023-01-05T04:15:21;5.67;;;1.80;;
12163;SDS011;6145;50.192;10.064;2023-01-05T04:17:48;1.90;;;1.30;;
12163;SDS011;6145;50.192;10.064;2023-01-05T04:20:14;5.67;;;1.80;;
12163;SDS011;6145;50.192;10.064;2023-01-05T04:22:41;7.83;;;1.70;;
12163;SDS011;6145;50.192;10.064;2023-01-05T04:25:08;6.60;;;1.80;;
12163;SDS011;6145;50.192;10.064;2023-01-05T04:27:37;3.73;;;1.67;;
12163;SDS011;6145;50.192;10.064;2023-01-05T04:30:04;1.50;;;1.30;;
12163;SDS011;6145;50.192;10.064;2023-01-05T04:32:32;3.33;;;1.60;;
12163;SDS011;6145;50.192;10.064;2023-01-05T04:34:58;4.87;;;1.50;;
12163;SDS011;6145;50.192;10.064;2023-01-05T04:37:25;3.70;;;1.67;;
12163;SDS011;6145;50.192;10.064;2023-01-05T04:39:52;4.00;;;1.73;;
12163;SDS011;6145;50.192;10.064;2023-01-05T04:42:19;3.33;;;1.60;;
12163;SDS011;6145;50.192;10.064;2023-01-05T04:44:47;4.17;;;1.57;;
12163;SDS011;6145;50.192;10.064;2023-01-05T04:47:14;4.43;;;1.70;;
12163;SDS011;6145;50.192;10.064;2023-01-05T04:49:40;4.43;;;1.83;;
12163;SDS011;6145;50.192;10.064;2023-01-05T04:52:07;5.03;;;1.50;;
12163;SDS011;6145;50.192;10.064;2023-01-05T04:54:34;5.37;;;1.53;;
12163;SDS011;6145;50.192;10.064;2023-01-05T04:57:01;4.67;;;1.80;;
12163;SDS011;6145;50.192;10.064;2023-01-05T04:59:28;4.43;;;1.50;;
12163;SDS011;6145;50.192;10.064;2023-01-05T05:01:56;4.13;;;1.93;;
12163;SDS011;6145;50.192;10.064;2023-01-05T05:04:23;5.80;;;1.83;;
12163;SDS011;6145;50.192;10.064;2023-01-05T05:06:50;5.43;;;2.00;;
12163;SDS011;6145;50.192;10.064;2023-01-05T05:09:17;8.13;;;1.87;;
12163;SDS011;6145;50.192;10.064;2023-01-05T05:11:44;6.17;;;1.83;;
12163;SDS011;6145;50.192;10.064;2023-01-05T05:14:11;3.80;;;1.67;;
12163;SDS011;6145;50.192;10.064;2023-01-05T05:16:37;7.37;;;2.33;;
12163;SDS011;6145;50.192;10.064;2023-01-05T05:19:06;5.47;;;1.90;;
12163;SDS011;6145;50.192;10.064;2023-01-05T05:21:33;2.83;;;1.93;;
12163;SDS011;6145;50.192;10.064;2023-01-05T05:24:00;5.20;;;2.00;;
12163;SDS011;6145;50.192;10.064;2023-01-05T05:26:27;7.40;;;2.17;;
12163;SDS011;6145;50.192;10.064;2023-01-05T05:28:56;5.57;;;2.60;;
12163;SDS011;6145;50.192;10.064;2023-01-05T05:31:23;5.57;;;2.07;;
12163;SDS011;6145;50.192;10.064;2023-01-05T05:33:49;8.27;;;2.30;;
12163;SDS011;6145;50.192;10.064;2023-01-05T05:36:17;8.33;;;2.27;;
12163;SDS011;6145;50.192;10.064;2023-01-05T05:38:44;8.40;;;2.37;;
12163;SDS011;6145;50.192;10.064;2023-01-05T05:41:11;7.47;;;2.40;;
12163;SDS011;6145;50.192;10.064;2023-01-05T05:43:38;7.13;;;2.63;;
12163;SDS011;6145;50.192;10.064;2023-01-05T05:46:05;3.77;;;1.90;;
12163;SDS011;6145;50.192;10.064;2023-01-05T05:48:32;5.17;;;1.90;;
12163;SDS011;6145;50.192;10.064;2023-01-05T05:50:58;5.07;;;2.13;;
12163;SDS011;6145;50.192;10.064;2023-01-05T05:53:26;5.90;;;1.87;;
12163;SDS011;6145;50.192;10.064;2023-01-05T05:55:53;7.20;;;2.47;;
12163;SDS011;6145;50.192;10.064;2023-01-05T05:58:20;7.67;;;2.53;;
12163;SDS011;6145;50.192;10.064;2023-01-05T06:00:47;5.57;;;2.20;;
12163;SDS011;6145;50.192;10.064;2023-01-05T06:03:14;9.53;;;2.67;;
12163;SDS011;6145;50.192;10.064;2023-01-05T06:05:41;7.20;;;1.93;;
12163;SDS011;6145;50.192;10.064;2023-01-05T06:08:07;14.00;;;3.37;;
12163;SDS011;6145;50.192;10.064;2023-01-05T06:10:35;5.57;;;2.27;;
12163;SDS011;6145;50.192;10.064;2023-01-05T06:13:03;6.97;;;3.30;;
12163;SDS011;6145;50.192;10.064;2023-01-05T06:15:30;5.20;;;2.40;;
12163;SDS011;6145;50.192;10.064;2023-01-05T06:17:56;12.27;;;2.87;;
12163;SDS011;6145;50.192;10.064;2023-01-05T06:20:23;7.03;;;2.17;;
12163;SDS011;6145;50.192;10.064;2023-01-05T06:22:50;7.07;;;2.03;;
12163;SDS011;6145;50.192;10.064;2023-01-05T06:25:17;7.40;;;2.40;;
12163;SDS011;6145;50.192;10.064;2023-01-05T06:27:45;6.30;;;2.30;;
12163;SDS011;6145;50.192;10.064;2023-01-05T06:30:12;6.37;;;2.33;;
12163;SDS011;6145;50.192;10.064;2023-01-05T06:32:39;9.73;;;2.60;;
12163;SDS011;6145;50.192;10.064;2023-01-05T06:35:06;8.37;;;2.60;;
12163;SDS011;6145;50.192;10.064;2023-01-05T06:37:33;7.90;;;1.90;;
12163;SDS011;6145;50.192;10.064;2023-01-05T06:40:00;6.97;;;2.10;;
12163;SDS011;6145;50.192;10.064;2023-01-05T06:42:27;12.07;;;2.87;;
12163;SDS011;6145;50.192;10.064;2023-01-05T06:44:55;8.40;;;2.50;;
12163;SDS011;6145;50.192;10.064;2023-01-05T06:47:22;7.67;;;2.80;;
12163;SDS011;6145;50.192;10.064;2023-01-05T06:49:49;4.40;;;1.90;;
12163;SDS011;6145;50.192;10.064;2023-01-05T06:52:15;8.90;;;2.80;;
12163;SDS011;6145;50.192;10.064;2023-01-05T06:54:42;6.60;;;2.30;;
12163;SDS011;6145;50.192;10.064;2023-01-05T06:57:09;8.27;;;2.73;;
12163;SDS011;6145;50.192;10.064;2023-01-05T06:59:36;9.33;;;2.90;;
12163;SDS011;6145;50.192;10.064;2023-01-05T07:02:04;9.97;;;2.40;;
12163;SDS011;6145;50.192;10.064;2023-01-05T07:04:31;4.80;;;2.30;;
12163;SDS011;6145;50.192;10.064;2023-01-05T07:06:58;7.10;;;1.80;;
12163;SDS011;6145;50.192;10.064;2023-01-05T07:09:25;6.40;;;2.50;;
12163;SDS011;6145;50.192;10.064;2023-01-05T07:11:51;7.60;;;2.47;;
12163;SDS011;6145;50.192;10.064;2023-01-05T07:14:18;6.43;;;2.50;;
12163;SDS011;6145;50.192;10.064;2023-01-05T07:16:45;7.87;;;2.57;;
12163;SDS011;6145;50.192;10.064;2023-01-05T07:19:13;13.47;;;2.83;;
12163;SDS011;6145;50.192;10.064;2023-01-05T07:21:40;6.10;;;2.57;;
12163;SDS011;6145;50.192;10.064;2023-01-05T07:24:06;4.37;;;2.17;;
12163;SDS011;6145;50.192;10.064;2023-01-05T07:26:33;8.60;;;2.80;;
12163;SDS011;6145;50.192;10.064;2023-01-05T07:29:00;8.53;;;2.33;;
12163;SDS011;6145;50.192;10.064;2023-01-05T07:31:27;7.73;;;2.60;;
12163;SDS011;6145;50.192;10.064;2023-01-05T07:33:54;9.40;;;3.50;;
12163;SDS011;6145;50.192;10.064;2023-01-05T07:36:22;9.60;;;3.47;;
12163;SDS011;6145;50.192;10.064;2023-01-05T07:38:50;5.77;;;2.27;;
12163;SDS011;6145;50.192;10.064;2023-01-05T07:41:17;5.97;;;2.53;;
12163;SDS011;6145;50.192;10.064;2023-01-05T07:43:43;5.50;;;2.37;;
12163;SDS011;6145;50.192;10.064;2023-01-05T07:46:13;8.63;;;2.60;;
12163;SDS011;6145;50.192;10.064;2023-01-05T07:48:40;6.20;;;2.10;;
12163;SDS011;6145;50.192;10.064;2023-01-05T07:51:08;8.03;;;2.67;;
12163;SDS011;6145;50.192;10.064;2023-01-05T07:53:37;6.93;;;2.70;;
12163;SDS011;6145;50.192;10.064;2023-01-05T07:56:04;10.30;;;2.50;;
12163;SDS011;6145;50.192;10.064;2023-01-05T07:58:40;8.70;;;2.27;;
12163;SDS011;6145;50.192;10.064;2023-01-05T08:01:08;13.63;;;3.40;;
12163;SDS011;6145;50.192;10.064;2023-01-05T08:03:36;11.27;;;3.13;;
12163;SDS011;6145;50.192;10.064;2023-01-05T08:06:03;8.10;;;2.70;;
12163;SDS011;6145;50.192;10.064;2023-01-05T08:08:31;6.37;;;2.17;;
12163;SDS011;6145;50.192;10.064;2023-01-05T08:10:59;11.20;;;2.70;;
12163;SDS011;6145;50.192;10.064;2023-01-05T08:13:28;11.70;;;2.40;;
12163;SDS011;6145;50.192;10.064;2023-01-05T08:16:13;11.53;;;3.13;;
12163;SDS011;6145;50.192;10.064;2023-01-05T08:18:39;7.97;;;2.67;;
12163;SDS011;6145;50.192;10.064;2023-01-05T08:21:06;8.47;;;2.53;;
12163;SDS011;6145;50.192;10.064;2023-01-05T08:23:34;8.13;;;2.67;;
12163;SDS011;6145;50.192;10.064;2023-01-05T08:26:03;8.83;;;2.50;;
12163;SDS011;6145;50.192;10.064;2023-01-05T08:28:31;8.57;;;2.50;;
12163;SDS011;6145;50.192;10.064;2023-01-05T08:31:00;6.20;;;2.43;;
12163;SDS011;6145;50.192;10.064;2023-01-05T08:33:28;12.53;;;2.60;;
12163;SDS011;6145;50.192;10.064;2023-01-05T08:35:55;7.73;;;3.27;;
12163;SDS011;6145;50.192;10.064;2023-01-05T08:38:22;10.70;;;2.87;;
12163;SDS011;6145;50.192;10.064;2023-01-05T08:40:49;8.20;;;2.67;;
12163;SDS011;6145;50.192;10.064;2023-01-05T08:43:17;12.33;;;3.10;;
12163;SDS011;6145;50.192;10.064;2023-01-05T08:45:46;8.17;;;2.93;;
12163;SDS011;6145;50.192;10.064;2023-01-05T08:48:14;6.90;;;2.40;;
12163;SDS011;6145;50.192;10.064;2023-01-05T08:50:41;8.37;;;2.87;;
12163;SDS011;6145;50.192;10.064;2023-01-05T08:53:07;12.83;;;2.50;;
12163;SDS011;6145;50.192;10.064;2023-01-05T08:55:34;9.10;;;2.60;;
12163;SDS011;6145;50.192;10.064;2023-01-05T08:58:03;7.60;;;2.87;;
12163;SDS011;6145;50.192;10.064;2023-01-05T09:00:32;2.17;;;1.27;;
12163;SDS011;6145;50.192;10.064;2023-01-05T09:02:59;11.37;;;2.70;;
12163;SDS011;6145;50.192;10.064;2023-01-05T09:05:26;9.43;;;2.17;;
12163;SDS011;6145;50.192;10.064;2023-01-05T09:07:53;7.20;;;2.43;;
12163;SDS011;6145;50.192;10.064;2023-01-05T09:10:20;6.50;;;2.47;;
12163;SDS011;6145;50.192;10.064;2023-01-05T09:12:47;11.07;;;4.23;;
12163;SDS011;6145;50.192;10.064;2023-01-05T09:15:13;7.43;;;2.57;;
12163;SDS011;6145;50.192;10.064;2023-01-05T09:17:41;9.20;;;3.03;;
12163;SDS011;6145;50.192;10.064;2023-01-05T09:20:08;8.83;;;2.57;;
12163;SDS011;6145;50.192;10.064;2023-01-05T09:22:35;12.33;;;2.63;;
12163;SDS011;6145;50.192;10.064;2023-01-05T09:25:02;10.13;;;2.60;;
12163;SDS011;6145;50.192;10.064;2023-01-05T09:27:30;11.83;;;2.60;;
12163;SDS011;6145;50.192;10.064;2023-01-05T09:29:56;14.73;;;3.10;;
12163;SDS011;6145;50.192;10.064;2023-01-05T09:32:23;7.13;;;2.17;;
12163;SDS011;6145;50.192;10.064;2023-01-05T09:34:51;7.23;;;2.90;;
12163;SDS011;6145;50.192;10.064;2023-01-05T09:37:18;9.10;;;2.70;;
12163;SDS011;6145;50.192;10.064;2023-01-05T09:39:45;6.73;;;2.57;;
12163;SDS011;6145;50.192;10.064;2023-01-05T09:42:12;9.73;;;2.77;;
12163;SDS011;6145;50.192;10.064;2023-01-05T09:44:42;9.43;;;2.57;;
12163;SDS011;6145;50.192;10.064;2023-01-05T09:47:14;9.60;;;2.50;;
12163;SDS011;6145;50.192;10.064;2023-01-05T09:49:45;16.00;;;3.37;;
12163;SDS011;6145;50.192;10.064;2023-01-05T09:52:19;7.20;;;2.43;;
12163;SDS011;6145;50.192;10.064;2023-01-05T09:54:47;5.83;;;2.43;;
12163;SDS011;6145;50.192;10.064;2023-01-05T09:57:15;8.37;;;2.73;;
12163;SDS011;6145;50.192;10.064;2023-01-05T09:59:52;11.53;;;2.63;;
12163;SDS011;6145;50.192;10.064;2023-01-05T10:02:33;8.30;;;2.47;;
12163;SDS011;6145;50.192;10.064;2023-01-05T10:05:11;5.90;;;2.60;;
12163;SDS011;6145;50.192;10.064;2023-01-05T10:07:43;9.20;;;3.40;;
12163;SDS011;6145;50.192;10.064;2023-01-05T10:10:26;11.37;;;3.07;;
12163;SDS011;6145;50.192;10.064;2023-01-05T10:13:13;5.83;;;2.50;;
12163;SDS011;6145;50.192;10.064;2023-01-05T10:15:45;6.37;;;2.47;;
12163;SDS011;6145;50.192;10.064;2023-01-05T10:18:16;7.93;;;2.00;;
12163;SDS011;6145;50.192;10.064;2023-01-05T10:23:51;10.97;;;2.50;;
12163;SDS011;6145;50.192;10.064;2023-01-05T10:26:29;11.03;;;3.00;;
12163;SDS011;6145;50.192;10.064;2023-01-05T10:29:04;8.07;;;2.33;;
12163;SDS011;6145;50.192;10.064;2023-01-05T10:31:42;7.53;;;2.50;;
12163;SDS011;6145;50.192;10.064;2023-01-05T10:34:13;7.83;;;1.90;;
12163;SDS011;6145;50.192;10.064;2023-01-05T10:37:05;5.60;;;2.50;;
12163;SDS011;6145;50.192;10.064;2023-01-05T10:39:55;5.80;;;2.93;;
12163;SDS011;6145;50.192;10.064;2023-01-05T10:42:31;9.10;;;2.77;;
12163;SDS011;6145;50.192;10.064;2023-01-05T10:45:09;7.43;;;2.57;;
12163;SDS011;6145;50.192;10.064;2023-01-05T10:47:39;7.10;;;2.37;;
12163;SDS011;6145;50.192;10.064;2023-01-05T10:53:03;9.40;;;2.77;;
12163;SDS011;6145;50.192;10.064;2023-01-05T10:55:40;5.67;;;2.67;;
12163;SDS011;6145;50.192;10.064;2023-01-05T10:58:20;11.00;;;2.93;;
12163;SDS011;6145;50.192;10.064;2023-01-05T11:00:48;9.83;;;2.87;;
12163;SDS011;6145;50.192;10.064;2023-01-05T11:03:16;5.30;;;2.00;;
12163;SDS011;6145;50.192;10.064;2023-01-05T11:05:44;8.13;;;2.73;;
12163;SDS011;6145;50.192;10.064;2023-01-05T11:08:13;7.43;;;2.20;;
12163;SDS011;6145;50.192;10.064;2023-01-05T11:10:48;4.93;;;2.40;;
12163;SDS011;6145;50.192;10.064;2023-01-05T11:13:17;7.83;;;2.90;;
12163;SDS011;6145;50.192;10.064;2023-01-05T11:15:52;3.93;;;2.30;;
12163;SDS011;6145;50.192;10.064;2023-01-05T11:18:22;7.07;;;2.30;;
12163;SDS011;6145;50.192;10.064;2023-01-05T11:21:08;7.47;;;2.40;;
12163;SDS011;6145;50.192;10.064;2023-01-05T11:23:37;8.23;;;2.70;;
12163;SDS011;6145;50.192;10.064;2023-01-05T11:26:27;6.43;;;2.50;;
12163;SDS011;6145;50.192;10.064;2023-01-05T11:28:59;4.60;;;1.73;;
12163;SDS011;6145;50.192;10.064;2023-01-05T11:31:36;6.50;;;2.60;;
12163;SDS011;6145;50.192;10.064;2023-01-05T11:34:07;11.07;;;3.20;;
12163;SDS011;6145;50.192;10.064;2023-01-05T11:36:49;4.33;;;2.10;;
12163;SDS011;6145;50.192;10.064;2023-01-05T11:39:24;9.40;;;2.60;;
12163;SDS011;6145;50.192;10.064;2023-01-05T11:42:08;8.20;;;2.43;;
12163;SDS011;6145;50.192;10.064;2023-01-05T11:44:38;5.70;;;2.30;;
12163;SDS011;6145;50.192;10.064;2023-01-05T11:47:08;7.00;;;2.40;;
12163;SDS011;6145;50.192;10.064;2023-01-05T11:49:42;6.27;;;2.10;;
12163;SDS011;6145;50.192;10.064;2023-01-05T11:52:22;6.00;;;2.47;;
12163;SDS011;6145;50.192;10.064;2023-01-05T11:54:53;6.17;;;2.63;;
12163;SDS011;6145;50.192;10.064;2023-01-05T11:57:21;7.87;;;2.10;;
12163;SDS011;6145;50.192;10.064;2023-01-05T11:59:48;7.67;;;2.60;;
12163;SDS011;6145;50.192;10.064;2023-01-05T12:05:24;5.53;;;2.40;;
12163;SDS011;6145;50.192;10.064;2023-01-05T12:07:57;5.90;;;2.20;;
12163;SDS011;6145;50.192;10.064;2023-01-05T12:10:39;9.40;;;2.53;;
12163;SDS011;6145;50.192;10.064;2023-01-05T12:13:22;10.20;;;2.47;;
12163;SDS011;6145;50.192;10.064;2023-01-05T12:22:20;3.53;;;1.93;;
12163;SDS011;6145;50.192;10.064;2023-01-05T12:25:10;6.70;;;2.27;;
12163;SDS011;6145;50.192;10.064;2023-01-05T12:27:52;7.30;;;2.30;;
12163;SDS011;6145;50.192;10.064;2023-01-05T12:30:31;7.33;;;2.40;;
12163;SDS011;6145;50.192;10.064;2023-01-05T12:33:09;7.37;;;2.30;;
12163;SDS011;6145;50.192;10.064;2023-01-05T12:35:49;5.43;;;2.33;;
12163;SDS011;6145;50.192;10.064;2023-01-05T12:38:44;4.27;;;2.47;;
12163;SDS011;6145;50.192;10.064;2023-01-05T12:41:32;10.40;;;3.70;;
12163;SDS011;6145;50.192;10.064;2023-01-05T12:47:25;4.10;;;2.03;;
12163;SDS011;6145;50.192;10.064;2023-01-05T12:50:03;6.87;;;2.97;;
12163;SDS011;6145;50.192;10.064;2023-01-05T12:52:43;7.30;;;2.77;;
12163;SDS011;6145;50.192;10.064;2023-01-05T12:55:13;7.20;;;2.40;;
12163;SDS011;6145;50.192;10.064;2023-01-05T12:57:45;11.17;;;2.50;;
12163;SDS011;6145;50.192;10.064;2023-01-05T13:00:18;10.03;;;3.40;;
12163;SDS011;6145;50.192;10.064;2023-01-05T13:02:48;7.63;;;2.30;;
12163;SDS011;6145;50.192;10.064;2023-01-05T13:05:20;10.57;;;2.40;;
12163;SDS011;6145;50.192;10.064;2023-01-05T13:07:53;11.17;;;2.70;;
12163;SDS011;6145;50.192;10.064;2023-01-05T13:10:24;7.97;;;2.53;;
12163;SDS011;6145;50.192;10.064;2023-01-05T13:12:55;11.33;;;2.93;;
12163;SDS011;6145;50.192;10.064;2023-01-05T13:15:26;6.50;;;2.33;;
12163;SDS011;6145;50.192;10.064;2023-01-05T13:17:57;8.60;;;2.63;;
12163;SDS011;6145;50.192;10.064;2023-01-05T13:20:27;5.47;;;2.50;;
12163;SDS011;6145;50.192;10.064;2023-01-05T13:23:03;9.27;;;2.60;;
12163;SDS011;6145;50.192;10.064;2023-01-05T13:25:34;8.37;;;2.77;;
12163;SDS011;6145;50.192;10.064;2023-01-05T13:28:14;12.67;;;3.10;;
12163;SDS011;6145;50.192;10.064;2023-01-05T13:30:46;9.97;;;3.07;;
12163;SDS011;6145;50.192;10.064;2023-01-05T13:33:33;8.20;;;2.80;;
12163;SDS011;6145;50.192;10.064;2023-01-05T13:36:15;4.30;;;2.10;;
12163;SDS011;6145;50.192;10.064;2023-01-05T13:39:02;7.17;;;2.47;;
12163;SDS011;6145;50.192;10.064;2023-01-05T13:41:58;9.40;;;2.43;;
12163;SDS011;6145;50.192;10.064;2023-01-05T13:44:50;7.47;;;2.60;;
12163;SDS011;6145;50.192;10.064;2023-01-05T13:47:40;8.00;;;2.97;;
12163;SDS011;6145;50.192;10.064;2023-01-05T13:50:20;5.80;;;2.87;;
12163;SDS011;6145;50.192;10.064;2023-01-05T13:53:00;11.87;;;2.70;;
12163;SDS011;6145;50.192;10.064;2023-01-05T13:55:31;8.90;;;3.00;;
12163;SDS011;6145;50.192;10.064;2023-01-05T13:58:22;6.47;;;2.67;;
12163;SDS011;6145;50.192;10.064;2023-01-05T14:00:59;8.67;;;2.90;;
12163;SDS011;6145;50.192;10.064;2023-01-05T14:03:29;6.33;;;2.40;;
12163;SDS011;6145;50.192;10.064;2023-01-05T14:06:01;13.23;;;3.40;;
12163;SDS011;6145;50.192;10.064;2023-01-05T14:08:33;8.27;;;3.33;;
12163;SDS011;6145;50.192;10.064;2023-01-05T14:11:07;16.00;;;3.30;;
12163;SDS011;6145;50.192;10.064;2023-01-05T14:19:25;8.77;;;2.93;;
12163;SDS011;6145;50.192;10.064;2023-01-05T14:22:23;9.00;;;2.40;;
12163;SDS011;6145;50.192;10.064;2023-01-05T14:28:15;8.10;;;3.03;;
12163;SDS011;6145;50.192;10.064;2023-01-05T14:30:44;8.83;;;3.53;;
12163;SDS011;6145;50.192;10.064;2023-01-05T14:33:10;10.17;;;3.40;;
12163;SDS011;6145;50.192;10.064;2023-01-05T14:35:40;10.00;;;3.30;;
12163;SDS011;6145;50.192;10.064;2023-01-05T14:38:15;7.97;;;3.00;;
12163;SDS011;6145;50.192;10.064;2023-01-05T14:40:46;13.23;;;3.67;;
12163;SDS011;6145;50.192;10.064;2023-01-05T14:43:25;10.27;;;3.17;;
12163;SDS011;6145;50.192;10.064;2023-01-05T14:46:04;9.37;;;2.97;;
12163;SDS011;6145;50.192;10.064;2023-01-05T14:48:34;11.93;;;4.00;;
12163;SDS011;6145;50.192;10.064;2023-01-05T14:51:05;9.77;;;2.80;;
12163;SDS011;6145;50.192;10.064;2023-01-05T14:53:42;9.00;;;2.90;;
12163;SDS011;6145;50.192;10.064;2023-01-05T14:56:14;10.73;;;3.00;;
12163;SDS011;6145;50.192;10.064;2023-01-05T14:58:48;9.47;;;3.57;;
12163;SDS011;6145;50.192;10.064;2023-01-05T15:01:24;13.93;;;3.37;;
12163;SDS011;6145;50.192;10.064;2023-01-05T15:03:54;14.27;;;3.20;;
12163;SDS011;6145;50.192;10.064;2023-01-05T15:06:28;8.03;;;2.73;;
12163;SDS011;6145;50.192;10.064;2023-01-05T15:09:15;14.00;;;3.60;;
12163;SDS011;6145;50.192;10.064;2023-01-05T15:14:53;15.57;;;4.03;;
12163;SDS011;6145;50.192;10.064;2023-01-05T15:17:49;11.37;;;3.97;;
12163;SDS011;6145;50.192;10.064;2023-01-05T15:20:37;9.50;;;3.60;;
12163;SDS011;6145;50.192;10.064;2023-01-05T15:23:32;11.23;;;3.47;;
12163;SDS011;6145;50.192;10.064;2023-01-05T15:26:28;7.43;;;3.13;;
12163;SDS011;6145;50.192;10.064;2023-01-05T15:29:29;13.87;;;3.33;;
12163;SDS011;6145;50.192;10.064;2023-01-05T15:32:05;16.50;;;4.33;;
12163;SDS011;6145;50.192;10.064;2023-01-05T15:34:41;10.27;;;3.07;;
12163;SDS011;6145;50.192;10.064;2023-01-05T15:37:12;7.67;;;3.13;;
12163;SDS011;6145;50.192;10.064;2023-01-05T15:39:45;10.67;;;3.43;;
12163;SDS011;6145;50.192;10.064;2023-01-05T15:42:15;11.20;;;3.30;;
12163;SDS011;6145;50.192;10.064;2023-01-05T15:44:45;9.23;;;3.17;;
12163;SDS011;6145;50.192;10.064;2023-01-05T15:47:13;10.73;;;3.10;;
12163;SDS011;6145;50.192;10.064;2023-01-05T15:49:41;10.60;;;3.10;;